sensor_id;sensor_type;location;lat;lon;timestamp;P1;durP1;ratioP1;P2;durP2;ratioP2
79578;SDS011;69051;52.406;5.280;2023-07-20T00:02:02;2.58;;;1.10;;
79578;SDS011;69051;52.406;5.280;2023-07-20T00:04:31;2.83;;;1.40;;
79578;SDS011;69051;52.406;5.280;2023-07-20T00:06:58;3.10;;;1.17;;
79578;SDS011;69051;52.406;5.280;2023-07-20T00:09:27;2.83;;;1.27;;
79578;SDS011;69051;52.406;5.280;2023-07-20T00:11:53;3.30;;;1.30;;
79578;SDS011;69051;52.406;5.280;2023-07-20T00:14:20;2.97;;;1.42;;
79578;SDS011;69051;52.406;5.280;2023-07-20T00:16:50;3.22;;;1.40;;
79578;SDS011;69051;52.406;5.280;2023-07-20T00:19:25;5.38;;;1.50;;
79578;SDS011;69051;52.406;5.280;2023-07-20T00:21:53;4.25;;;1.73;;
79578;SDS011;69051;52.406;5.280;2023-07-20T00:24:21;3.88;;;1.50;;
79578;SDS011;69051;52.406;5.280;2023-07-20T00:26:48;3.92;;;1.60;;
79578;SDS011;69051;52.406;5.280;2023-07-20T00:29:15;4.20;;;1.98;;
79578;SDS011;69051;52.406;5.280;2023-07-20T00:31:41;6.00;;;1.88;;
79578;SDS011;69051;52.406;5.280;2023-07-20T00:34:10;5.15;;;1.50;;
79578;SDS011;69051;52.406;5.280;2023-07-20T00:36:36;4.28;;;1.38;;
79578;SDS011;69051;52.406;5.280;2023-07-20T00:39:03;9.30;;;1.80;;
79578;SDS011;69051;52.406;5.280;2023-07-20T00:41:29;3.80;;;1.90;;
79578;SDS011;69051;52.406;5.280;2023-07-20T00:43:57;5.25;;;1.70;;
79578;SDS011;69051;52.406;5.280;2023-07-20T00:46:24;5.25;;;1.50;;
79578;SDS011;69051;52.406;5.280;2023-07-20T00:48:52;5.85;;;1.90;;
79578;SDS011;69051;52.406;5.280;2023-07-20T00:51:20;6.18;;;1.90;;
79578;SDS011;69051;52.406;5.280;2023-07-20T00:53:47;4.82;;;1.63;;
79578;SDS011;69051;52.406;5.280;2023-07-20T00:56:14;6.65;;;1.90;;
79578;SDS011;69051;52.406;5.280;2023-07-20T00:58:41;9.75;;;1.80;;
79578;SDS011;69051;52.406;5.280;2023-07-20T01:01:08;3.78;;;1.60;;
79578;SDS011;69051;52.406;5.280;2023-07-20T01:03:35;3.83;;;1.58;;
79578;SDS011;69051;52.406;5.280;2023-07-20T01:06:05;5.03;;;1.58;;
79578;SDS011;69051;52.406;5.280;2023-07-20T01:11:20;3.85;;;1.90;;
79578;SDS011;69051;52.406;5.280;2023-07-20T01:13:51;3.80;;;1.52;;
79578;SDS011;69051;52.406;5.280;2023-07-20T01:16:18;5.95;;;1.58;;
79578;SDS011;69051;52.406;5.280;2023-07-20T01:18:45;6.25;;;1.80;;
79578;SDS011;69051;52.406;5.280;2023-07-20T01:21:13;8.68;;;1.85;;
79578;SDS011;69051;52.406;5.280;2023-07-20T01:23:51;3.58;;;1.67;;
79578;SDS011;69051;52.406;5.280;2023-07-20T01:31:37;3.92;;;1.60;;
79578;SDS011;69051;52.406;5.280;2023-07-20T01:34:05;3.45;;;1.20;;
79578;SDS011;69051;52.406;5.280;2023-07-20T01:36:33;6.10;;;1.60;;
79578;SDS011;69051;52.406;5.280;2023-07-20T01:39:02;4.78;;;1.40;;
79578;SDS011;69051;52.406;5.280;2023-07-20T01:41:30;3.90;;;1.27;;
79578;SDS011;69051;52.406;5.280;2023-07-20T01:43:58;3.22;;;1.27;;
79578;SDS011;69051;52.406;5.280;2023-07-20T01:46:25;4.55;;;1.55;;
79578;SDS011;69051;52.406;5.280;2023-07-20T01:48:53;6.15;;;1.95;;
79578;SDS011;69051;52.406;5.280;2023-07-20T01:51:20;4.07;;;1.30;;
79578;SDS011;69051;52.406;5.280;2023-07-20T01:53:47;4.22;;;1.75;;
79578;SDS011;69051;52.406;5.280;2023-07-20T01:56:13;2.75;;;1.13;;
79578;SDS011;69051;52.406;5.280;2023-07-20T01:58:40;6.05;;;1.38;;
79578;SDS011;69051;52.406;5.280;2023-07-20T02:01:07;2.60;;;1.30;;
79578;SDS011;69051;52.406;5.280;2023-07-20T02:03:33;7.40;;;1.70;;
79578;SDS011;69051;52.406;5.280;2023-07-20T02:06:00;4.35;;;1.10;;
79578;SDS011;69051;52.406;5.280;2023-07-20T02:08:28;2.25;;;0.90;;
79578;SDS011;69051;52.406;5.280;2023-07-20T02:10:55;3.83;;;1.05;;
79578;SDS011;69051;52.406;5.280;2023-07-20T02:13:22;2.90;;;1.02;;
79578;SDS011;69051;52.406;5.280;2023-07-20T02:15:49;2.63;;;1.15;;
79578;SDS011;69051;52.406;5.280;2023-07-20T02:18:15;5.07;;;1.52;;
79578;SDS011;69051;52.406;5.280;2023-07-20T02:20:42;2.90;;;1.13;;
79578;SDS011;69051;52.406;5.280;2023-07-20T02:23:09;3.72;;;1.27;;
79578;SDS011;69051;52.406;5.280;2023-07-20T02:25:36;2.45;;;0.90;;
79578;SDS011;69051;52.406;5.280;2023-07-20T02:28:03;2.08;;;0.90;;
79578;SDS011;69051;52.406;5.280;2023-07-20T02:30:30;3.10;;;1.48;;
79578;SDS011;69051;52.406;5.280;2023-07-20T02:32:56;4.22;;;1.45;;
79578;SDS011;69051;52.406;5.280;2023-07-20T02:35:24;1.98;;;0.95;;
79578;SDS011;69051;52.406;5.280;2023-07-20T02:37:52;4.35;;;0.98;;
79578;SDS011;69051;52.406;5.280;2023-07-20T02:40:19;4.57;;;0.98;;
79578;SDS011;69051;52.406;5.280;2023-07-20T02:42:46;3.75;;;0.90;;
79578;SDS011;69051;52.406;5.280;2023-07-20T02:45:12;2.78;;;1.23;;
79578;SDS011;69051;52.406;5.280;2023-07-20T02:47:39;4.68;;;1.20;;
79578;SDS011;69051;52.406;5.280;2023-07-20T02:50:06;4.25;;;1.23;;
79578;SDS011;69051;52.406;5.280;2023-07-20T02:52:33;3.95;;;1.20;;
79578;SDS011;69051;52.406;5.280;2023-07-20T02:55:00;7.07;;;1.40;;
79578;SDS011;69051;52.406;5.280;2023-07-20T02:57:27;2.38;;;0.93;;
79578;SDS011;69051;52.406;5.280;2023-07-20T02:59:53;4.35;;;1.30;;
79578;SDS011;69051;52.406;5.280;2023-07-20T03:02:21;2.33;;;0.95;;
79578;SDS011;69051;52.406;5.280;2023-07-20T03:04:47;1.38;;;0.73;;
79578;SDS011;69051;52.406;5.280;2023-07-20T03:07:13;3.45;;;1.05;;
79578;SDS011;69051;52.406;5.280;2023-07-20T03:09:40;3.95;;;1.05;;
79578;SDS011;69051;52.406;5.280;2023-07-20T03:12:07;7.93;;;1.20;;
79578;SDS011;69051;52.406;5.280;2023-07-20T03:14:34;4.85;;;1.40;;
79578;SDS011;69051;52.406;5.280;2023-07-20T03:17:01;4.72;;;1.25;;
79578;SDS011;69051;52.406;5.280;2023-07-20T03:19:27;3.22;;;0.98;;
79578;SDS011;69051;52.406;5.280;2023-07-20T03:21:54;3.63;;;1.10;;
79578;SDS011;69051;52.406;5.280;2023-07-20T03:24:21;1.80;;;0.90;;
79578;SDS011;69051;52.406;5.280;2023-07-20T03:26:47;4.05;;;1.05;;
79578;SDS011;69051;52.406;5.280;2023-07-20T03:29:14;7.25;;;1.13;;
79578;SDS011;69051;52.406;5.280;2023-07-20T03:31:42;2.42;;;1.10;;
79578;SDS011;69051;52.406;5.280;2023-07-20T03:34:08;6.57;;;1.20;;
79578;SDS011;69051;52.406;5.280;2023-07-20T03:36:35;4.13;;;1.10;;
79578;SDS011;69051;52.406;5.280;2023-07-20T03:39:01;4.50;;;1.10;;
79578;SDS011;69051;52.406;5.280;2023-07-20T03:41:29;2.10;;;1.00;;
79578;SDS011;69051;52.406;5.280;2023-07-20T03:43:55;3.75;;;1.15;;
79578;SDS011;69051;52.406;5.280;2023-07-20T03:46:22;3.42;;;1.50;;
79578;SDS011;69051;52.406;5.280;2023-07-20T03:48:49;3.80;;;1.02;;
79578;SDS011;69051;52.406;5.280;2023-07-20T03:51:15;3.60;;;1.30;;
79578;SDS011;69051;52.406;5.280;2023-07-20T03:53:42;5.18;;;1.52;;
79578;SDS011;69051;52.406;5.280;2023-07-20T03:56:08;1.90;;;0.90;;
79578;SDS011;69051;52.406;5.280;2023-07-20T03:58:35;2.75;;;1.00;;
79578;SDS011;69051;52.406;5.280;2023-07-20T04:01:01;3.42;;;1.15;;
79578;SDS011;69051;52.406;5.280;2023-07-20T04:03:28;3.17;;;1.40;;
79578;SDS011;69051;52.406;5.280;2023-07-20T04:05:55;3.75;;;1.25;;
79578;SDS011;69051;52.406;5.280;2023-07-20T04:08:24;3.88;;;1.00;;
79578;SDS011;69051;52.406;5.280;2023-07-20T04:10:51;3.92;;;1.00;;
79578;SDS011;69051;52.406;5.280;2023-07-20T04:13:18;3.83;;;1.10;;
79578;SDS011;69051;52.406;5.280;2023-07-20T04:15:45;3.80;;;1.33;;
79578;SDS011;69051;52.406;5.280;2023-07-20T04:18:11;5.18;;;1.30;;
79578;SDS011;69051;52.406;5.280;2023-07-20T04:20:38;2.60;;;1.10;;
79578;SDS011;69051;52.406;5.280;2023-07-20T04:23:05;3.28;;;1.40;;
79578;SDS011;69051;52.406;5.280;2023-07-20T04:25:31;3.50;;;1.33;;
79578;SDS011;69051;52.406;5.280;2023-07-20T04:28:06;3.15;;;1.13;;
79578;SDS011;69051;52.406;5.280;2023-07-20T04:30:37;5.05;;;1.23;;
79578;SDS011;69051;52.406;5.280;2023-07-20T04:33:03;3.88;;;1.77;;
79578;SDS011;69051;52.406;5.280;2023-07-20T04:35:52;4.53;;;1.63;;
79578;SDS011;69051;52.406;5.280;2023-07-20T04:38:20;4.10;;;1.52;;
79578;SDS011;69051;52.406;5.280;2023-07-20T04:40:48;3.95;;;1.20;;
79578;SDS011;69051;52.406;5.280;2023-07-20T04:43:15;5.45;;;2.10;;
79578;SDS011;69051;52.406;5.280;2023-07-20T04:45:42;2.50;;;1.13;;
79578;SDS011;69051;52.406;5.280;2023-07-20T04:48:13;4.20;;;1.60;;
79578;SDS011;69051;52.406;5.280;2023-07-20T04:50:40;5.10;;;1.50;;
79578;SDS011;69051;52.406;5.280;2023-07-20T04:53:13;6.60;;;1.58;;
79578;SDS011;69051;52.406;5.280;2023-07-20T04:55:40;3.35;;;1.30;;
79578;SDS011;69051;52.406;5.280;2023-07-20T04:58:07;8.50;;;1.58;;
79578;SDS011;69051;52.406;5.280;2023-07-20T05:00:34;3.13;;;1.55;;
79578;SDS011;69051;52.406;5.280;2023-07-20T05:03:00;4.45;;;1.77;;
79578;SDS011;69051;52.406;5.280;2023-07-20T05:05:28;3.65;;;1.45;;
79578;SDS011;69051;52.406;5.280;2023-07-20T05:07:54;9.32;;;1.88;;
79578;SDS011;69051;52.406;5.280;2023-07-20T05:10:21;5.35;;;2.05;;
79578;SDS011;69051;52.406;5.280;2023-07-20T05:12:48;4.28;;;1.67;;
79578;SDS011;69051;52.406;5.280;2023-07-20T05:15:15;5.40;;;1.73;;
79578;SDS011;69051;52.406;5.280;2023-07-20T05:17:41;3.90;;;1.50;;
79578;SDS011;69051;52.406;5.280;2023-07-20T05:20:08;3.50;;;1.55;;
79578;SDS011;69051;52.406;5.280;2023-07-20T05:22:38;3.08;;;1.30;;
79578;SDS011;69051;52.406;5.280;2023-07-20T05:25:06;3.58;;;1.52;;
79578;SDS011;69051;52.406;5.280;2023-07-20T05:27:37;4.78;;;1.63;;
79578;SDS011;69051;52.406;5.280;2023-07-20T05:30:05;3.80;;;1.90;;
79578;SDS011;69051;52.406;5.280;2023-07-20T05:32:33;4.63;;;1.50;;
79578;SDS011;69051;52.406;5.280;2023-07-20T05:35:00;5.13;;;1.40;;
79578;SDS011;69051;52.406;5.280;2023-07-20T05:37:26;3.50;;;1.50;;
79578;SDS011;69051;52.406;5.280;2023-07-20T05:39:53;5.68;;;2.03;;
79578;SDS011;69051;52.406;5.280;2023-07-20T05:42:19;4.13;;;1.45;;
79578;SDS011;69051;52.406;5.280;2023-07-20T05:44:46;2.50;;;1.20;;
79578;SDS011;69051;52.406;5.280;2023-07-20T05:47:14;5.57;;;1.20;;
79578;SDS011;69051;52.406;5.280;2023-07-20T05:49:40;2.63;;;1.00;;
79578;SDS011;69051;52.406;5.280;2023-07-20T05:52:07;2.42;;;1.10;;
79578;SDS011;69051;52.406;5.280;2023-07-20T05:54:33;5.38;;;1.73;;
79578;SDS011;69051;52.406;5.280;2023-07-20T05:57:01;3.35;;;1.25;;
79578;SDS011;69051;52.406;5.280;2023-07-20T05:59:28;2.35;;;1.00;;
79578;SDS011;69051;52.406;5.280;2023-07-20T06:01:57;3.45;;;1.00;;
79578;SDS011;69051;52.406;5.280;2023-07-20T06:04:25;4.43;;;1.15;;
79578;SDS011;69051;52.406;5.280;2023-07-20T06:06:51;5.45;;;1.05;;
79578;SDS011;69051;52.406;5.280;2023-07-20T06:09:18;3.22;;;1.10;;
79578;SDS011;69051;52.406;5.280;2023-07-20T06:11:45;3.30;;;0.90;;
79578;SDS011;69051;52.406;5.280;2023-07-20T06:14:11;4.75;;;1.17;;
79578;SDS011;69051;52.406;5.280;2023-07-20T06:16:38;3.85;;;1.10;;
79578;SDS011;69051;52.406;5.280;2023-07-20T06:19:05;5.90;;;0.90;;
79578;SDS011;69051;52.406;5.280;2023-07-20T06:21:31;2.97;;;1.30;;
79578;SDS011;69051;52.406;5.280;2023-07-20T06:23:58;2.38;;;0.70;;
79578;SDS011;69051;52.406;5.280;2023-07-20T06:26:25;2.75;;;0.90;;
79578;SDS011;69051;52.406;5.280;2023-07-20T06:28:51;1.65;;;0.80;;
79578;SDS011;69051;52.406;5.280;2023-07-20T06:31:18;3.20;;;1.00;;
79578;SDS011;69051;52.406;5.280;2023-07-20T06:33:44;3.70;;;1.33;;
79578;SDS011;69051;52.406;5.280;2023-07-20T06:36:11;4.40;;;1.27;;
79578;SDS011;69051;52.406;5.280;2023-07-20T06:38:38;2.85;;;0.80;;
79578;SDS011;69051;52.406;5.280;2023-07-20T06:41:04;4.68;;;1.00;;
79578;SDS011;69051;52.406;5.280;2023-07-20T06:43:34;2.63;;;0.85;;
79578;SDS011;69051;52.406;5.280;2023-07-20T06:46:04;4.25;;;0.73;;
79578;SDS011;69051;52.406;5.280;2023-07-20T06:48:30;3.60;;;1.20;;
79578;SDS011;69051;52.406;5.280;2023-07-20T06:50:57;3.13;;;0.90;;
79578;SDS011;69051;52.406;5.280;2023-07-20T06:53:24;1.60;;;0.73;;
79578;SDS011;69051;52.406;5.280;2023-07-20T06:55:50;6.00;;;0.90;;
79578;SDS011;69051;52.406;5.280;2023-07-20T06:58:17;3.50;;;0.90;;
79578;SDS011;69051;52.406;5.280;2023-07-20T07:00:44;1.38;;;0.63;;
79578;SDS011;69051;52.406;5.280;2023-07-20T07:03:11;1.88;;;0.60;;
79578;SDS011;69051;52.406;5.280;2023-07-20T07:05:37;4.07;;;0.70;;
79578;SDS011;69051;52.406;5.280;2023-07-20T07:08:04;2.75;;;0.75;;
79578;SDS011;69051;52.406;5.280;2023-07-20T07:10:31;4.80;;;0.98;;
79578;SDS011;69051;52.406;5.280;2023-07-20T07:12:58;2.75;;;0.70;;
79578;SDS011;69051;52.406;5.280;2023-07-20T07:15:25;1.52;;;0.70;;
79578;SDS011;69051;52.406;5.280;2023-07-20T07:17:51;1.38;;;0.52;;
79578;SDS011;69051;52.406;5.280;2023-07-20T07:20:18;2.63;;;1.02;;
79578;SDS011;69051;52.406;5.280;2023-07-20T07:22:47;6.05;;;1.20;;
79578;SDS011;69051;52.406;5.280;2023-07-20T07:25:13;2.47;;;1.00;;
79578;SDS011;69051;52.406;5.280;2023-07-20T07:27:48;2.40;;;0.80;;
79578;SDS011;69051;52.406;5.280;2023-07-20T07:30:14;3.70;;;0.88;;
79578;SDS011;69051;52.406;5.280;2023-07-20T07:32:41;2.10;;;1.05;;
79578;SDS011;69051;52.406;5.280;2023-07-20T07:35:08;3.22;;;0.90;;
79578;SDS011;69051;52.406;5.280;2023-07-20T07:37:34;3.10;;;0.95;;
79578;SDS011;69051;52.406;5.280;2023-07-20T07:40:17;2.85;;;0.80;;
79578;SDS011;69051;52.406;5.280;2023-07-20T07:42:44;2.83;;;0.80;;
79578;SDS011;69051;52.406;5.280;2023-07-20T07:45:11;2.60;;;0.68;;
79578;SDS011;69051;52.406;5.280;2023-07-20T07:47:37;4.35;;;0.70;;
79578;SDS011;69051;52.406;5.280;2023-07-20T07:50:04;1.70;;;0.60;;
79578;SDS011;69051;52.406;5.280;2023-07-20T07:52:31;4.63;;;0.90;;
79578;SDS011;69051;52.406;5.280;2023-07-20T07:54:58;2.40;;;1.08;;
79578;SDS011;69051;52.406;5.280;2023-07-20T07:57:25;4.88;;;0.80;;
79578;SDS011;69051;52.406;5.280;2023-07-20T07:59:52;2.17;;;0.77;;
79578;SDS011;69051;52.406;5.280;2023-07-20T08:02:19;2.88;;;1.25;;
79578;SDS011;69051;52.406;5.280;2023-07-20T08:04:46;3.97;;;0.90;;
79578;SDS011;69051;52.406;5.280;2023-07-20T08:07:14;1.67;;;0.70;;
79578;SDS011;69051;52.406;5.280;2023-07-20T08:09:41;1.50;;;0.70;;
79578;SDS011;69051;52.406;5.280;2023-07-20T08:12:09;2.13;;;0.60;;
79578;SDS011;69051;52.406;5.280;2023-07-20T08:14:36;2.67;;;0.70;;
79578;SDS011;69051;52.406;5.280;2023-07-20T08:17:02;3.38;;;0.82;;
79578;SDS011;69051;52.406;5.280;2023-07-20T08:19:30;1.33;;;0.70;;
79578;SDS011;69051;52.406;5.280;2023-07-20T08:21:57;1.27;;;0.63;;
79578;SDS011;69051;52.406;5.280;2023-07-20T08:24:24;1.52;;;0.60;;
79578;SDS011;69051;52.406;5.280;2023-07-20T08:26:52;1.55;;;0.50;;
79578;SDS011;69051;52.406;5.280;2023-07-20T08:29:18;6.32;;;2.13;;
79578;SDS011;69051;52.406;5.280;2023-07-20T08:31:45;3.70;;;0.57;;
79578;SDS011;69051;52.406;5.280;2023-07-20T08:34:12;2.05;;;0.80;;
79578;SDS011;69051;52.406;5.280;2023-07-20T08:36:55;0.98;;;0.52;;
79578;SDS011;69051;52.406;5.280;2023-07-20T08:39:22;1.25;;;0.40;;
79578;SDS011;69051;52.406;5.280;2023-07-20T08:41:49;1.92;;;0.60;;
79578;SDS011;69051;52.406;5.280;2023-07-20T08:44:15;2.85;;;0.80;;
79578;SDS011;69051;52.406;5.280;2023-07-20T08:46:42;2.38;;;0.60;;
79578;SDS011;69051;52.406;5.280;2023-07-20T08:49:10;1.42;;;0.50;;
79578;SDS011;69051;52.406;5.280;2023-07-20T08:51:37;1.33;;;0.70;;
79578;SDS011;69051;52.406;5.280;2023-07-20T08:54:05;3.17;;;0.73;;
79578;SDS011;69051;52.406;5.280;2023-07-20T08:56:32;1.58;;;0.50;;
79578;SDS011;69051;52.406;5.280;2023-07-20T08:59:00;2.72;;;0.60;;
79578;SDS011;69051;52.406;5.280;2023-07-20T09:01:28;2.42;;;0.52;;
79578;SDS011;69051;52.406;5.280;2023-07-20T09:03:55;3.40;;;0.88;;
79578;SDS011;69051;52.406;5.280;2023-07-20T09:06:23;1.08;;;0.40;;
79578;SDS011;69051;52.406;5.280;2023-07-20T09:08:50;1.67;;;0.75;;
79578;SDS011;69051;52.406;5.280;2023-07-20T09:11:16;0.88;;;0.40;;
79578;SDS011;69051;52.406;5.280;2023-07-20T09:13:43;0.85;;;0.40;;
79578;SDS011;69051;52.406;5.280;2023-07-20T09:16:13;1.70;;;0.60;;
79578;SDS011;69051;52.406;5.280;2023-07-20T09:18:40;0.85;;;0.43;;
79578;SDS011;69051;52.406;5.280;2023-07-20T09:21:08;1.27;;;0.45;;
79578;SDS011;69051;52.406;5.280;2023-07-20T09:23:38;1.17;;;0.32;;
79578;SDS011;69051;52.406;5.280;2023-07-20T09:26:10;2.70;;;0.50;;
79578;SDS011;69051;52.406;5.280;2023-07-20T09:28:41;1.70;;;0.50;;
79578;SDS011;69051;52.406;5.280;2023-07-20T09:31:28;2.75;;;0.50;;
79578;SDS011;69051;52.406;5.280;2023-07-20T09:34:06;4.00;;;0.55;;
79578;SDS011;69051;52.406;5.280;2023-07-20T09:36:33;2.03;;;0.60;;
79578;SDS011;69051;52.406;5.280;2023-07-20T09:39:04;1.17;;;0.55;;
79578;SDS011;69051;52.406;5.280;2023-07-20T09:41:40;5.60;;;0.80;;
79578;SDS011;69051;52.406;5.280;2023-07-20T09:44:11;1.33;;;0.40;;
79578;SDS011;69051;52.406;5.280;2023-07-20T09:46:45;0.93;;;0.50;;
79578;SDS011;69051;52.406;5.280;2023-07-20T09:49:18;1.60;;;0.45;;
79578;SDS011;69051;52.406;5.280;2023-07-20T09:51:47;1.63;;;0.60;;
79578;SDS011;69051;52.406;5.280;2023-07-20T09:54:15;1.90;;;0.47;;
79578;SDS011;69051;52.406;5.280;2023-07-20T09:56:42;2.72;;;0.98;;
79578;SDS011;69051;52.406;5.280;2023-07-20T09:59:09;2.03;;;0.40;;
79578;SDS011;69051;52.406;5.280;2023-07-20T10:01:36;2.22;;;0.63;;
79578;SDS011;69051;52.406;5.280;2023-07-20T10:04:05;0.47;;;0.30;;
79578;SDS011;69051;52.406;5.280;2023-07-20T10:06:33;3.97;;;0.63;;
79578;SDS011;69051;52.406;5.280;2023-07-20T10:09:03;2.97;;;0.70;;
79578;SDS011;69051;52.406;5.280;2023-07-20T10:11:30;3.13;;;0.50;;
79578;SDS011;69051;52.406;5.280;2023-07-20T10:13:59;2.78;;;0.60;;
79578;SDS011;69051;52.406;5.280;2023-07-20T10:16:28;1.48;;;0.50;;
79578;SDS011;69051;52.406;5.280;2023-07-20T10:22:00;1.73;;;0.40;;
79578;SDS011;69051;52.406;5.280;2023-07-20T10:24:49;2.35;;;0.60;;
79578;SDS011;69051;52.406;5.280;2023-07-20T10:27:16;3.20;;;0.70;;
79578;SDS011;69051;52.406;5.280;2023-07-20T10:29:43;1.50;;;0.73;;
79578;SDS011;69051;52.406;5.280;2023-07-20T10:32:10;2.42;;;0.52;;
79578;SDS011;69051;52.406;5.280;2023-07-20T10:34:38;2.75;;;0.80;;
79578;SDS011;69051;52.406;5.280;2023-07-20T10:37:06;0.50;;;0.40;;
79578;SDS011;69051;52.406;5.280;2023-07-20T10:39:33;4.68;;;0.60;;
79578;SDS011;69051;52.406;5.280;2023-07-20T10:42:01;2.70;;;0.63;;
79578;SDS011;69051;52.406;5.280;2023-07-20T10:44:32;1.10;;;0.32;;
79578;SDS011;69051;52.406;5.280;2023-07-20T10:46:59;2.17;;;0.55;;
79578;SDS011;69051;52.406;5.280;2023-07-20T10:49:27;6.63;;;0.98;;
79578;SDS011;69051;52.406;5.280;2023-07-20T10:51:56;1.65;;;0.60;;
79578;SDS011;69051;52.406;5.280;2023-07-20T10:56:51;1.92;;;0.55;;
79578;SDS011;69051;52.406;5.280;2023-07-20T11:01:56;5.65;;;1.13;;
79578;SDS011;69051;52.406;5.280;2023-07-20T11:04:40;1.67;;;0.90;;
79578;SDS011;69051;52.406;5.280;2023-07-20T11:07:07;3.03;;;1.17;;
79578;SDS011;69051;52.406;5.280;2023-07-20T11:09:38;5.30;;;1.02;;
79578;SDS011;69051;52.406;5.280;2023-07-20T11:12:15;4.53;;;1.13;;
79578;SDS011;69051;52.406;5.280;2023-07-20T11:14:53;2.28;;;0.90;;
79578;SDS011;69051;52.406;5.280;2023-07-20T11:17:28;3.10;;;1.10;;
79578;SDS011;69051;52.406;5.280;2023-07-20T11:19:59;2.15;;;0.90;;
79578;SDS011;69051;52.406;5.280;2023-07-20T11:22:33;5.20;;;1.05;;
79578;SDS011;69051;52.406;5.280;2023-07-20T11:24:59;2.63;;;0.98;;
79578;SDS011;69051;52.406;5.280;2023-07-20T11:27:26;4.60;;;1.27;;
79578;SDS011;69051;52.406;5.280;2023-07-20T11:29:54;7.03;;;1.20;;
79578;SDS011;69051;52.406;5.280;2023-07-20T11:32:21;3.17;;;0.90;;
79578;SDS011;69051;52.406;5.280;2023-07-20T11:34:49;3.05;;;1.13;;
79578;SDS011;69051;52.406;5.280;2023-07-20T11:37:19;3.78;;;1.17;;
79578;SDS011;69051;52.406;5.280;2023-07-20T11:39:49;3.22;;;0.93;;
79578;SDS011;69051;52.406;5.280;2023-07-20T11:42:15;1.33;;;0.70;;
79578;SDS011;69051;52.406;5.280;2023-07-20T11:44:51;2.10;;;0.80;;
79578;SDS011;69051;52.406;5.280;2023-07-20T11:47:18;3.95;;;1.30;;
79578;SDS011;69051;52.406;5.280;2023-07-20T11:49:45;3.42;;;1.23;;
79578;SDS011;69051;52.406;5.280;2023-07-20T11:52:15;2.33;;;0.90;;
79578;SDS011;69051;52.406;5.280;2023-07-20T11:54:43;1.63;;;0.70;;
79578;SDS011;69051;52.406;5.280;2023-07-20T11:57:20;3.20;;;1.00;;
79578;SDS011;69051;52.406;5.280;2023-07-20T11:59:53;2.05;;;0.90;;
79578;SDS011;69051;52.406;5.280;2023-07-20T12:02:26;2.97;;;0.90;;
79578;SDS011;69051;52.406;5.280;2023-07-20T12:04:53;1.88;;;1.08;;
79578;SDS011;69051;52.406;5.280;2023-07-20T12:07:21;3.22;;;1.40;;
79578;SDS011;69051;52.406;5.280;2023-07-20T12:10:03;4.22;;;1.13;;
79578;SDS011;69051;52.406;5.280;2023-07-20T12:12:33;3.88;;;1.60;;
79578;SDS011;69051;52.406;5.280;2023-07-20T12:15:16;3.83;;;1.52;;
79578;SDS011;69051;52.406;5.280;2023-07-20T12:17:43;4.45;;;1.38;;
79578;SDS011;69051;52.406;5.280;2023-07-20T12:20:24;8.55;;;1.45;;
79578;SDS011;69051;52.406;5.280;2023-07-20T12:23:01;7.30;;;1.50;;
79578;SDS011;69051;52.406;5.280;2023-07-20T12:25:46;3.70;;;1.50;;
79578;SDS011;69051;52.406;5.280;2023-07-20T12:28:14;5.32;;;1.13;;
79578;SDS011;69051;52.406;5.280;2023-07-20T12:30:42;1.50;;;0.60;;
79578;SDS011;69051;52.406;5.280;2023-07-20T12:33:10;2.08;;;0.93;;
79578;SDS011;69051;52.406;5.280;2023-07-20T12:35:38;2.55;;;0.90;;
79578;SDS011;69051;52.406;5.280;2023-07-20T12:38:04;2.80;;;1.00;;
79578;SDS011;69051;52.406;5.280;2023-07-20T12:40:32;2.45;;;1.05;;
79578;SDS011;69051;52.406;5.280;2023-07-20T12:42:59;2.35;;;1.00;;
79578;SDS011;69051;52.406;5.280;2023-07-20T12:45:26;1.92;;;0.90;;
79578;SDS011;69051;52.406;5.280;2023-07-20T12:47:53;1.92;;;1.00;;
79578;SDS011;69051;52.406;5.280;2023-07-20T12:50:19;2.65;;;0.98;;
79578;SDS011;69051;52.406;5.280;2023-07-20T12:52:47;2.67;;;1.10;;
79578;SDS011;69051;52.406;5.280;2023-07-20T12:55:13;3.15;;;1.00;;
79578;SDS011;69051;52.406;5.280;2023-07-20T12:57:40;3.10;;;1.05;;
79578;SDS011;69051;52.406;5.280;2023-07-20T13:00:08;4.20;;;1.25;;
79578;SDS011;69051;52.406;5.280;2023-07-20T13:02:36;3.45;;;1.00;;
79578;SDS011;69051;52.406;5.280;2023-07-20T13:05:03;2.00;;;0.85;;
79578;SDS011;69051;52.406;5.280;2023-07-20T13:07:30;4.35;;;1.20;;
79578;SDS011;69051;52.406;5.280;2023-07-20T13:10:01;1.95;;;1.00;;
79578;SDS011;69051;52.406;5.280;2023-07-20T13:12:29;5.60;;;1.05;;
79578;SDS011;69051;52.406;5.280;2023-07-20T13:14:56;2.88;;;1.00;;
79578;SDS011;69051;52.406;5.280;2023-07-20T13:17:23;2.60;;;0.93;;
79578;SDS011;69051;52.406;5.280;2023-07-20T13:19:50;2.03;;;1.00;;
79578;SDS011;69051;52.406;5.280;2023-07-20T13:22:16;5.25;;;1.10;;
79578;SDS011;69051;52.406;5.280;2023-07-20T13:24:44;2.47;;;0.93;;
79578;SDS011;69051;52.406;5.280;2023-07-20T13:27:15;5.38;;;1.08;;
79578;SDS011;69051;52.406;5.280;2023-07-20T13:29:42;2.95;;;1.00;;
79578;SDS011;69051;52.406;5.280;2023-07-20T13:32:08;4.45;;;1.33;;
79578;SDS011;69051;52.406;5.280;2023-07-20T13:34:35;5.25;;;1.67;;
79578;SDS011;69051;52.406;5.280;2023-07-20T13:37:03;5.25;;;1.10;;
79578;SDS011;69051;52.406;5.280;2023-07-20T13:39:29;2.92;;;1.15;;
79578;SDS011;69051;52.406;5.280;2023-07-20T13:41:56;3.65;;;1.30;;
79578;SDS011;69051;52.406;5.280;2023-07-20T13:44:23;6.35;;;1.02;;
79578;SDS011;69051;52.406;5.280;2023-07-20T13:46:49;2.75;;;1.13;;
79578;SDS011;69051;52.406;5.280;2023-07-20T13:49:16;4.10;;;1.00;;
79578;SDS011;69051;52.406;5.280;2023-07-20T13:51:49;3.53;;;0.90;;
79578;SDS011;69051;52.406;5.280;2023-07-20T13:54:35;3.75;;;1.10;;
79578;SDS011;69051;52.406;5.280;2023-07-20T13:57:03;4.75;;;1.10;;
79578;SDS011;69051;52.406;5.280;2023-07-20T13:59:29;4.47;;;1.00;;
79578;SDS011;69051;52.406;5.280;2023-07-20T14:01:56;1.90;;;0.63;;
79578;SDS011;69051;52.406;5.280;2023-07-20T14:04:25;3.35;;;1.00;;
79578;SDS011;69051;52.406;5.280;2023-07-20T14:06:52;1.95;;;0.93;;
79578;SDS011;69051;52.406;5.280;2023-07-20T14:09:19;2.92;;;0.88;;
79578;SDS011;69051;52.406;5.280;2023-07-20T14:11:46;3.40;;;0.85;;
79578;SDS011;69051;52.406;5.280;2023-07-20T14:14:16;2.17;;;0.90;;
79578;SDS011;69051;52.406;5.280;2023-07-20T14:16:42;3.60;;;1.15;;
79578;SDS011;69051;52.406;5.280;2023-07-20T14:19:09;5.40;;;1.00;;
79578;SDS011;69051;52.406;5.280;2023-07-20T14:21:36;2.17;;;0.90;;
79578;SDS011;69051;52.406;5.280;2023-07-20T14:24:08;3.72;;;1.10;;
79578;SDS011;69051;52.406;5.280;2023-07-20T14:26:46;4.75;;;1.00;;
79578;SDS011;69051;52.406;5.280;2023-07-20T14:29:41;3.08;;;1.02;;
79578;SDS011;69051;52.406;5.280;2023-07-20T14:32:09;3.13;;;1.08;;
79578;SDS011;69051;52.406;5.280;2023-07-20T14:34:36;4.28;;;1.20;;
79578;SDS011;69051;52.406;5.280;2023-07-20T14:37:05;1.90;;;1.00;;
79578;SDS011;69051;52.406;5.280;2023-07-20T14:39:32;3.33;;;1.00;;
79578;SDS011;69051;52.406;5.280;2023-07-20T14:41:58;2.70;;;0.82;;
79578;SDS011;69051;52.406;5.280;2023-07-20T14:44:25;2.92;;;1.00;;
79578;SDS011;69051;52.406;5.280;2023-07-20T14:46:51;2.75;;;1.10;;
79578;SDS011;69051;52.406;5.280;2023-07-20T14:49:38;2.85;;;0.82;;
79578;SDS011;69051;52.406;5.280;2023-07-20T14:52:04;6.15;;;1.00;;
79578;SDS011;69051;52.406;5.280;2023-07-20T14:54:41;2.83;;;0.82;;
79578;SDS011;69051;52.406;5.280;2023-07-20T14:57:07;3.00;;;0.95;;
79578;SDS011;69051;52.406;5.280;2023-07-20T14:59:40;9.10;;;1.23;;
79578;SDS011;69051;52.406;5.280;2023-07-20T15:02:12;1.45;;;0.75;;
79578;SDS011;69051;52.406;5.280;2023-07-20T15:04:46;3.35;;;1.20;;
79578;SDS011;69051;52.406;5.280;2023-07-20T15:07:13;2.75;;;0.80;;
79578;SDS011;69051;52.406;5.280;2023-07-20T15:09:40;7.50;;;1.13;;
79578;SDS011;69051;52.406;5.280;2023-07-20T15:12:10;1.92;;;0.80;;